Time;durP1;ratioP1;P1;durP2;ratioP2;P2;SDS_P1;SDS_P2;PMS_P1;PMS_P2;Temp;Humidity;BMP_temperature;BMP_pressure;BME280_temperature;BME280_humidity;BME280_pressure;Samples;Min_cycle;Max_cycle;Signal;HPM_P1;HPM_P2
2024/03/13 00:04:20;;;;;;;29.10;17.90;;;;;;;6.92;100.00;98682.21;271663;1276;23182;-85
2024/03/13 00:10:46;;;;;;;27.70;17.00;;;;;;;6.90;100.00;98683.49;271955;1276;22336;-86
2024/03/13 00:17:35;;;;;;;22.90;14.80;;;;;;;6.88;100.00;98686.64;272154;1271;23043;-87
2024/03/13 00:23:38;;;;;;;26.30;15.80;;;;;;;6.87;100.00;98688.31;271408;1282;23498;-86
2024/03/13 00:30:09;;;;;;;21.70;14.20;;;;;;;6.85;100.00;98689.98;271331;1280;22290;-87
2024/03/13 00:36:39;;;;;;;22.70;14.20;;;;;;;6.82;100.00;98686.76;271440;1280;22278;-87
2024/03/13 00:43:39;;;;;;;19.80;12.60;;;;;;;6.80;100.00;98692.14;271571;1280;22227;-86
2024/03/13 00:50:48;;;;;;;19.80;13.20;;;;;;;6.76;100.00;98689.89;271705;1284;22305;-86
2024/03/13 00:56:52;;;;;;;20.30;12.10;;;;;;;6.75;100.00;98688.85;272179;1280;22205;-87
2024/03/13 01:03:41;;;;;;;18.80;12.10;;;;;;;6.73;100.00;98691.98;272235;1277;22848;-87
2024/03/13 01:09:52;;;;;;;21.00;12.00;;;;;;;6.70;100.00;98693.11;271812;1277;22845;-86
2024/03/13 01:16:41;;;;;;;20.70;12.40;;;;;;;6.69;100.00;98695.42;272039;1277;22214;-87
2024/03/13 01:23:22;;;;;;;16.80;11.00;;;;;;;6.69;100.00;98700.54;272374;1279;22195;-87
2024/03/13 01:29:25;;;;;;;20.30;11.50;;;;;;;6.67;100.00;98701.66;272443;1264;22915;-87
2024/03/13 01:35:49;;;;;;;19.20;11.40;;;;;;;6.66;100.00;98697.83;272234;1279;22195;-87
2024/03/13 02:07:52;;;;;;;12.50;8.50;;;;;;;6.55;100.00;98708.31;272425;1277;22269;-86
2024/03/13 02:14:35;;;;;;;12.00;7.90;;;;;;;6.54;100.00;98713.33;272309;1277;22182;-86
2024/03/13 02:21:10;;;;;;;15.20;8.40;;;;;;;6.51;100.00;98713.34;271406;1277;22393;-86
2024/03/13 02:27:22;;;;;;;13.50;8.40;;;;;;;6.49;100.00;98715.64;272319;1277;22205;-86
2024/03/13 02:33:45;;;;;;;13.50;8.30;;;;;;;6.46;100.00;98718.66;271867;1267;100193;-92
2024/03/13 02:39:53;;;;;;;13.70;9.70;;;;;;;6.44;100.00;98721.73;271962;1275;23150;-91
2024/03/13 02:46:02;;;;;;;13.90;9.70;;;;;;;6.42;100.00;98722.15;271800;1275;23367;-93
2024/03/13 02:52:06;;;;;;;15.70;11.20;;;;;;;6.39;100.00;98723.48;271849;1275;22473;-92
2024/03/13 02:58:10;;;;;;;17.10;11.30;;;;;;;6.36;100.00;98721.71;272140;1275;23082;-91
2024/03/13 03:04:14;;;;;;;19.70;12.70;;;;;;;6.35;100.00;98723.33;271860;1274;22229;-92
2024/03/13 03:10:20;;;;;;;22.90;12.40;;;;;;;6.34;100.00;98732.78;271978;1275;22375;-93
2024/03/13 03:16:32;;;;;;;19.50;12.90;;;;;;;6.35;100.00;98730.63;271961;1274;22235;-90
2024/03/13 03:22:41;;;;;;;18.70;12.90;;;;;;;6.33;100.00;98727.33;272011;1275;23378;-88
2024/03/13 03:29:02;;;;;;;21.50;14.10;;;;;;;6.30;100.00;98733.16;272149;1274;22358;-90
2024/03/13 03:35:05;;;;;;;22.10;15.10;;;;;;;6.28;100.00;98733.48;272062;1275;22448;-89
2024/03/13 03:41:10;;;;;;;27.20;15.60;;;;;;;6.24;100.00;98735.80;271929;1274;22982;-89
2024/03/13 03:47:15;;;;;;;24.70;14.90;;;;;;;6.22;100.00;98737.70;272129;1274;22983;-89
2024/03/13 03:53:29;;;;;;;28.50;15.50;;;;;;;6.20;100.00;98737.02;272004;1274;22993;-89
2024/03/13 03:59:34;;;;;;;36.40;17.40;;;;;;;6.19;100.00;98740.96;272060;1275;22244;-89
2024/03/13 04:08:44;;;;;;;26.80;16.30;;;;;;;6.18;100.00;98741.55;262894;1305;544896;-90
2024/03/13 04:14:46;;;;;;;27.50;16.50;;;;;;;6.12;100.00;98745.98;269888;1275;23652;-90
2024/03/13 04:20:52;;;;;;;26.70;16.60;;;;;;;6.12;100.00;98752.28;266938;1269;3734002;-91
2024/03/13 04:26:59;;;;;;;23.70;14.90;;;;;;;6.10;100.00;98751.06;269460;1269;22517;-92
2024/03/13 04:33:16;;;;;;;26.50;16.10;;;;;;;6.08;100.00;98755.20;270567;1266;24018;-91
2024/03/13 04:39:21;;;;;;;29.60;16.80;;;;;;;6.07;100.00;98757.45;270821;1266;22566;-92
2024/03/13 04:45:24;;;;;;;26.90;16.30;;;;;;;6.06;100.00;98758.18;270813;1266;22545;-91
2024/03/13 04:51:27;;;;;;;27.00;15.40;;;;;;;6.05;100.00;98759.80;270913;1266;22623;-92
2024/03/13 04:57:33;;;;;;;24.50;15.60;;;;;;;6.05;100.00;98763.83;271011;1266;22572;-91
2024/03/13 05:03:35;;;;;;;25.90;15.20;;;;;;;6.03;100.00;98771.52;270965;1266;25365;-91
2024/03/13 05:09:44;;;;;;;24.70;14.50;;;;;;;6.03;100.00;98779.20;270705;1266;23366;-91
2024/03/13 05:15:46;;;;;;;31.00;15.20;;;;;;;6.01;100.00;98787.55;270450;1266;23345;-90
2024/03/13 05:21:52;;;;;;;27.20;15.70;;;;;;;6.02;100.00;98789.90;270266;1267;22544;-91
2024/03/13 05:28:01;;;;;;;25.80;15.10;;;;;;;5.98;100.00;98790.52;270717;1266;24291;-90
2024/03/13 05:34:04;;;;;;;23.20;14.20;;;;;;;5.94;100.00;98799.63;270391;1267;23989;-91
2024/03/13 05:40:16;;;;;;;22.50;15.10;;;;;;;5.91;100.00;98804.85;270365;1267;23646;-91
2024/03/13 05:46:22;;;;;;;23.90;14.70;;;;;;;5.91;100.00;98809.27;270514;1267;23004;-90
2024/03/13 05:52:31;;;;;;;21.80;12.40;;;;;;;5.91;100.00;98816.17;270977;1267;22646;-91
2024/03/13 05:58:40;;;;;;;20.70;12.80;;;;;;;5.92;100.00;98819.31;270810;1266;23221;-90
2024/03/13 06:04:46;;;;;;;25.10;12.30;;;;;;;5.91;100.00;98822.55;270663;1266;25422;-91
2024/03/13 06:10:51;;;;;;;20.70;12.10;;;;;;;5.91;100.00;98829.08;270532;1266;22579;-90
2024/03/13 06:16:54;;;;;;;22.10;13.40;;;;;;;5.91;100.00;98835.67;270495;1265;22590;-91
2024/03/13 06:22:55;;;;;;;20.00;11.70;;;;;;;5.92;100.00;98843.05;270836;1267;24213;-91
2024/03/13 06:35:41;;;;;;;21.90;12.40;;;;;;;5.93;100.00;98853.81;270987;1265;24274;-92
2024/03/13 06:41:50;;;;;;;21.40;13.20;;;;;;;5.97;100.00;98860.34;270736;1266;22525;-91
2024/03/13 06:47:53;;;;;;;22.50;13.70;;;;;;;6.02;100.00;98864.37;270934;1266;22550;-90
2024/03/13 06:54:02;;;;;;;23.40;12.90;;;;;;;6.02;100.00;98871.58;271051;1263;22541;-91
2024/03/13 07:00:07;;;;;;;26.10;14.30;;;;;;;6.03;100.00;98876.80;271550;1266;23363;-91
2024/03/13 07:06:12;;;;;;;26.90;15.60;;;;;;;6.07;100.00;98872.67;271492;1266;22518;-91
2024/03/13 07:12:23;;;;;;;26.10;16.90;;;;;;;6.13;100.00;98876.00;270788;1267;23625;-91
2024/03/13 07:18:27;;;;;;;30.00;18.20;;;;;;;6.18;100.00;98881.66;270948;1263;24243;-91
2024/03/13 07:24:38;;;;;;;48.90;27.10;;;;;;;6.21;100.00;98884.46;270687;1266;22553;-93
2024/03/13 07:30:44;;;;;;;28.30;16.40;;;;;;;6.27;100.00;98891.66;269995;1266;22823;-94
2024/03/13 07:36:54;;;;;;;25.20;16.20;;;;;;;6.31;100.00;98895.75;269949;1265;22508;-92
2024/03/13 07:43:01;;;;;;;27.30;16.30;;;;;;;6.38;100.00;98897.93;269803;1266;25300;-95
2024/03/13 07:49:13;;;;;;;23.10;15.40;;;;;;;6.46;100.00;98901.78;269657;1266;22578;-93
2024/03/13 07:55:19;;;;;;;26.40;15.30;;;;;;;6.47;100.00;98902.98;270154;1266;22500;-93
2024/03/13 08:01:24;;;;;;;28.20;16.40;;;;;;;6.49;100.00;98900.85;270426;1265;23342;-93
2024/03/13 08:07:31;;;;;;;21.40;14.00;;;;;;;6.52;100.00;98903.58;270309;1266;22572;-93
2024/03/13 08:13:50;;;;;;;18.40;12.60;;;;;;;6.55;100.00;98908.40;269937;1266;23211;-93
2024/03/13 08:19:54;;;;;;;22.80;12.90;;;;;;;6.58;100.00;98911.58;270103;1266;22456;-93
2024/03/13 08:26:04;;;;;;;16.10;10.50;;;;;;;6.62;100.00;98916.56;269933;1266;23972;-94
2024/03/13 08:32:15;;;;;;;20.80;13.00;;;;;;;6.63;100.00;98916.12;270098;1265;22528;-95
2024/03/13 08:38:22;;;;;;;16.20;11.00;;;;;;;6.65;100.00;98922.54;269786;1265;22534;-94
2024/03/13 08:44:29;;;;;;;14.00;10.40;;;;;;;6.66;100.00;98924.52;269732;1265;22538;-94
2024/03/13 08:50:34;;;;;;;18.00;11.10;;;;;;;6.67;100.00;98929.14;269926;1266;23023;-93
2024/03/13 08:56:46;;;;;;;13.10;8.80;;;;;;;6.65;100.00;98932.87;269947;1265;24215;-93
2024/03/13 09:02:59;;;;;;;11.50;8.80;;;;;;;6.61;100.00;98933.34;269948;1266;23201;-93
2024/03/13 09:09:07;;;;;;;15.50;9.00;;;;;;;6.59;100.00;98939.66;269815;1266;24201;-93
2024/03/13 09:15:18;;;;;;;12.70;9.20;;;;;;;6.62;100.00;98944.41;269834;1266;22609;-94
2024/03/13 09:21:42;;;;;;;12.70;9.20;;;;;;;6.66;100.00;98947.54;270143;1265;23204;-94
2024/03/13 09:27:52;;;;;;;14.00;9.70;;;;;;;6.67;100.00;98955.09;270023;1266;23834;-93
2024/03/13 09:33:58;;;;;;;17.40;11.10;;;;;;;6.67;100.00;98958.91;269922;1265;22629;-93
2024/03/13 09:40:31;;;;;;;16.20;9.60;;;;;;;6.66;100.00;98966.58;270002;1265;22632;-94
2024/03/13 09:46:39;;;;;;;17.20;10.50;;;;;;;6.63;100.00;98968.74;269687;1266;22559;-94
2024/03/13 09:52:56;;;;;;;13.20;9.10;;;;;;;6.65;100.00;98971.83;269882;1265;22579;-94
2024/03/13 09:59:06;;;;;;;14.50;8.80;;;;;;;6.66;100.00;98972.17;269757;1265;24372;-93
2024/03/13 10:05:11;;;;;;;12.60;9.20;;;;;;;6.66;100.00;98979.77;269793;1266;22586;-94
2024/03/13 10:11:30;;;;;;;15.90;11.30;;;;;;;6.65;100.00;98982.41;269848;1266;22554;-94
2024/03/13 10:17:36;;;;;;;24.20;13.40;;;;;;;6.66;100.00;98983.83;269729;1265;22564;-93
2024/03/13 10:24:04;;;;;;;18.80;12.00;;;;;;;6.67;100.00;98992.16;269778;1266;22543;-93
2024/03/13 10:30:14;;;;;;;17.90;12.10;;;;;;;6.65;100.00;98993.29;270080;1266;23663;-93
2024/03/13 10:36:26;;;;;;;17.80;11.10;;;;;;;6.66;100.00;98995.31;269953;1266;22729;-94
2024/03/13 10:42:31;;;;;;;18.10;10.50;;;;;;;6.65;100.00;99001.90;270028;1265;22553;-90
2024/03/13 10:48:41;;;;;;;16.20;11.20;;;;;;;6.61;100.00;99002.04;270281;1259;22536;-91
2024/03/13 10:54:48;;;;;;;16.50;11.60;;;;;;;6.57;100.00;99000.06;270664;1266;22501;-90
2024/03/13 11:00:57;;;;;;;20.50;13.60;;;;;;;6.55;100.00;98999.38;270615;1266;23635;-90
2024/03/13 11:07:13;;;;;;;21.00;14.60;;;;;;;6.55;100.00;99000.30;270623;1266;25552;-91
2024/03/13 11:13:19;;;;;;;21.60;15.20;;;;;;;6.56;100.00;99001.76;270888;1265;22540;-91
2024/03/13 11:19:33;;;;;;;25.20;16.00;;;;;;;6.57;100.00;99005.42;270747;1266;22555;-91
2024/03/13 11:25:40;;;;;;;22.90;15.60;;;;;;;6.59;100.00;99002.46;270937;1265;22698;-90
2024/03/13 11:31:48;;;;;;;24.20;16.80;;;;;;;6.64;100.00;98997.92;270375;1266;26983;-91
2024/03/13 11:37:54;;;;;;;29.70;18.40;;;;;;;6.66;100.00;98996.50;272850;1266;22965;-91
2024/03/13 11:44:01;;;;;;;41.50;23.30;;;;;;;6.69;100.00;98995.48;270798;1255;25006;-91
2024/03/13 11:50:13;;;;;;;39.40;22.50;;;;;;;6.63;100.00;98993.39;271032;1266;25436;-91
2024/03/13 11:56:21;;;;;;;55.50;27.50;;;;;;;6.59;100.00;98994.44;270203;1266;22625;-91
2024/03/13 12:02:48;;;;;;;43.30;23.30;;;;;;;6.58;100.00;98999.31;270065;1266;24545;-91
2024/03/13 12:08:58;;;;;;;41.10;22.40;;;;;;;6.62;100.00;98994.69;270965;1266;22500;-91
2024/03/13 12:15:15;;;;;;;52.10;26.10;;;;;;;6.62;100.00;98994.52;270687;1266;22776;-91
2024/03/13 12:21:24;;;;;;;;;;;;;;;6.60;100.00;98991.60;273341;1266;23259;-91
2024/03/13 12:27:29;;;;;;;47.20;25.30;;;;;;;6.63;100.00;98995.88;273442;1266;22470;-92
2024/03/13 12:33:36;;;;;;;68.20;31.00;;;;;;;6.64;100.00;98993.71;273306;1266;22280;-91
2024/03/13 12:39:40;;;;;;;57.00;28.40;;;;;;;6.67;100.00;98997.52;273339;1260;22416;-92
2024/03/13 12:45:46;;;;;;;49.50;24.10;;;;;;;6.74;100.00;98993.77;271443;1266;22638;-90
2024/03/13 12:51:52;;;;;;;42.50;22.10;;;;;;;6.81;100.00;98996.27;270488;1266;22617;-91
2024/03/13 12:58:05;;;;;;;52.00;26.90;;;;;;;6.82;100.00;98997.07;271003;1266;22555;-91
2024/03/13 13:04:10;;;;;;;46.80;25.70;;;;;;;6.81;100.00;98993.16;271022;1266;23764;-91
2024/03/13 13:10:15;;;;;;;48.40;25.80;;;;;;;6.79;100.00;98992.71;270429;1266;22546;-91
2024/03/13 13:16:21;;;;;;;48.50;25.00;;;;;;;6.78;100.00;98997.98;270426;1265;22743;-91
2024/03/13 13:22:24;;;;;;;51.80;26.80;;;;;;;6.79;100.00;98997.83;270262;1266;22586;-91
2024/03/13 13:28:30;;;;;;;61.20;28.00;;;;;;;6.80;100.00;99000.66;270556;1266;24275;-91
2024/03/13 13:34:45;;;;;;;57.90;27.70;;;;;;;6.81;100.00;99004.44;270621;1265;22616;-91
2024/03/13 13:40:50;;;;;;;59.20;29.70;;;;;;;6.83;100.00;99005.19;270420;1266;22546;-90
2024/03/13 13:46:53;;;;;;;57.20;28.20;;;;;;;6.84;100.00;99008.78;270392;1266;23613;-92
2024/03/13 13:53:05;;;;;;;65.70;31.30;;;;;;;6.88;100.00;99009.05;270357;1266;22614;-92
2024/03/13 13:59:11;;;;;;;56.40;27.30;;;;;;;6.96;100.00;99010.33;270383;1265;23584;-93
2024/03/13 14:12:33;;;;;;;50.10;25.30;;;;;;;7.26;100.00;99008.61;270650;1266;22511;-91
2024/03/13 14:18:43;;;;;;;50.90;25.90;;;;;;;7.44;100.00;99010.69;270440;1266;22551;-91
2024/03/13 14:24:59;;;;;;;50.30;26.70;;;;;;;7.57;100.00;99011.11;270599;1266;23789;-92
2024/03/13 14:31:13;;;;;;;69.10;33.80;;;;;;;7.65;100.00;99013.36;270609;1266;22488;-91
2024/03/13 14:37:22;;;;;;;55.60;29.20;;;;;;;7.71;100.00;99012.16;270730;1266;22631;-92
2024/03/13 14:43:46;;;;;;;44.20;24.10;;;;;;;7.76;100.00;99015.99;270982;1266;23318;-93
2024/03/13 14:52:40;;;;;;;51.30;24.60;;;;;;;7.90;100.00;99027.08;262455;1307;544899;-91
2024/03/13 14:58:58;;;;;;;40.30;23.60;;;;;;;7.90;100.00;99033.69;268426;1282;22356;-91
2024/03/13 15:05:05;;;;;;;56.70;27.70;;;;;;;7.88;100.00;99038.46;266769;1279;2182099;-91
2024/03/13 15:11:09;;;;;;;42.80;23.30;;;;;;;7.87;100.00;99040.08;268324;1280;24226;-92
2024/03/13 15:17:15;;;;;;;49.10;25.40;;;;;;;7.85;100.00;99038.33;268199;1279;23271;-90
2024/03/13 15:23:59;;;;;;;41.70;21.70;;;;;;;7.89;100.00;99036.71;268264;1279;22638;-91
2024/03/13 15:30:28;;;;;;;50.70;25.40;;;;;;;7.93;100.00;99042.63;271144;1279;23245;-92
2024/03/13 15:36:33;;;;;;;38.40;20.90;;;;;;;7.93;100.00;99044.10;271160;1280;22476;-92
2024/03/13 15:42:39;;;;;;;61.00;26.60;;;;;;;7.93;100.00;99040.36;271144;1280;22336;-91
2024/03/13 15:48:45;;;;;;;49.60;25.10;;;;;;;7.97;100.00;99041.55;270475;1280;22580;-91
2024/03/13 15:54:54;;;;;;;30.60;19.80;;;;;;;7.96;100.00;99045.52;267969;1278;22561;-91
2024/03/13 16:01:10;;;;;;;35.00;20.80;;;;;;;7.96;100.00;99039.20;269227;1268;22567;-91
2024/03/13 16:07:23;;;;;;;34.80;19.60;;;;;;;7.97;100.00;99039.77;269086;1270;22532;-92
2024/03/13 16:13:43;;;;;;;31.00;19.90;;;;;;;7.97;100.00;99047.23;269188;1270;22530;-92
2024/03/13 16:19:54;;;;;;;30.70;19.30;;;;;;;7.90;100.00;99047.39;269697;1270;22590;-92
2024/03/13 16:25:58;;;;;;;29.50;18.20;;;;;;;7.79;100.00;99057.48;269603;1270;23332;-92
2024/03/13 16:32:21;;;;;;;32.80;20.60;;;;;;;7.69;100.00;99064.73;269530;1270;24560;-92
2024/03/13 16:38:31;;;;;;;33.60;21.10;;;;;;;7.57;100.00;99067.71;269743;1270;22602;-92
2024/03/13 16:44:39;;;;;;;27.60;18.30;;;;;;;7.45;100.00;99070.39;269553;1270;24081;-92
2024/03/13 16:50:45;;;;;;;32.00;18.70;;;;;;;7.36;100.00;99073.27;269255;1270;22980;-92
2024/03/13 16:56:51;;;;;;;31.50;17.90;;;;;;;7.26;100.00;99078.22;269501;1270;23542;-93
2024/03/13 17:03:01;;;;;;;29.20;18.20;;;;;;;7.09;100.00;99081.52;254896;1270;20003472;-92
2024/03/13 17:09:09;;;;;;;32.60;18.70;;;;;;;6.99;100.00;99083.13;270052;1270;22620;-92
2024/03/13 17:15:21;;;;;;;42.90;22.50;;;;;;;6.88;100.00;99084.77;270053;1270;22524;-92
2024/03/13 17:21:38;;;;;;;46.30;27.70;;;;;;;6.87;100.00;99085.52;269986;1270;22535;-92
2024/03/13 17:27:48;;;;;;;35.30;22.30;;;;;;;6.84;100.00;99089.33;270669;1263;22560;-92
2024/03/13 17:33:52;;;;;;;42.80;22.50;;;;;;;6.80;100.00;99091.86;270478;1270;22549;-92
2024/03/13 17:39:57;;;;;;;49.20;27.70;;;;;;;6.74;100.00;99088.89;272424;1270;22310;-91
2024/03/13 17:46:10;;;;;;;51.30;29.30;;;;;;;6.71;100.00;99088.49;272340;1270;22420;-91
2024/03/13 17:52:20;;;;;;;54.70;30.20;;;;;;;6.64;100.00;99087.63;272436;1270;22378;-91
2024/03/13 17:58:32;;;;;;;52.40;30.10;;;;;;;6.62;100.00;99085.46;272438;1271;22601;-92
2024/03/13 18:04:39;;;;;;;47.00;27.80;;;;;;;6.58;100.00;99091.17;272368;1270;22209;-91
2024/03/13 18:10:53;;;;;;;;;;;;;;;6.58;100.00;99088.91;272360;1270;23164;-91
2024/03/13 18:16:58;;;;;;;71.50;38.10;;;;;;;6.56;100.00;99094.53;272487;1270;22221;-93
2024/03/13 18:23:05;;;;;;;111.20;58.00;;;;;;;6.51;100.00;99099.73;272244;1270;22197;-93
2024/03/13 18:29:09;;;;;;;86.30;47.70;;;;;;;6.46;100.00;99096.19;272248;1270;23269;-93
2024/03/13 18:35:17;;;;;;;82.40;44.10;;;;;;;6.42;100.00;99106.46;270664;1270;22969;-92
2024/03/13 18:41:30;;;;;;;81.80;44.90;;;;;;;6.38;100.00;99111.11;270377;1270;22559;-93
2024/03/13 18:47:37;;;;;;;72.00;39.60;;;;;;;6.32;100.00;99111.35;270772;1270;22544;-94
2024/03/13 18:53:41;;;;;;;81.50;45.10;;;;;;;6.27;100.00;99111.04;270938;1270;22552;-93
2024/03/13 18:59:47;;;;;;;83.40;46.20;;;;;;;6.24;100.00;99117.61;270909;1270;23773;-93
2024/03/13 19:05:51;;;;;;;82.60;46.10;;;;;;;6.22;100.00;99120.27;270867;1270;22631;-92
2024/03/13 19:11:59;;;;;;;69.00;39.00;;;;;;;6.21;100.00;99121.66;270987;1270;22523;-92
2024/03/13 19:18:15;;;;;;;76.40;42.50;;;;;;;6.19;100.00;99118.78;270843;1270;22537;-92
2024/03/13 19:24:28;;;;;;;93.60;48.60;;;;;;;6.14;100.00;99121.10;270987;1270;22600;-92
2024/03/13 19:30:41;;;;;;;79.70;42.70;;;;;;;6.08;100.00;99127.06;271042;1262;23115;-93
2024/03/13 19:36:47;;;;;;;98.70;47.50;;;;;;;6.04;100.00;99136.55;271158;1271;22507;-92
2024/03/13 19:42:59;;;;;;;110.30;54.30;;;;;;;5.98;100.00;99147.32;271094;1270;23445;-91
2024/03/13 19:49:11;;;;;;;91.60;46.70;;;;;;;5.95;100.00;99152.82;271207;1268;22640;-91
2024/03/13 19:55:18;;;;;;;123.10;56.60;;;;;;;5.92;100.00;99150.56;271356;1270;22575;-91
2024/03/13 20:01:33;;;;;;;130.90;66.20;;;;;;;5.92;100.00;99145.96;271042;1271;22547;-92
2024/03/13 20:07:43;;;;;;;145.70;71.40;;;;;;;5.92;100.00;99146.35;271068;1270;22565;-92
2024/03/13 20:13:47;;;;;;;138.80;75.50;;;;;;;5.90;100.00;99145.43;271027;1270;22581;-91
2024/03/13 20:19:50;;;;;;;126.90;69.00;;;;;;;5.88;100.00;99150.86;270903;1256;22545;-92
2024/03/13 20:32:57;;;;;;;113.40;60.50;;;;;;;5.88;100.00;99147.38;265053;1301;545861;-92
2024/03/13 20:39:05;;;;;;;103.20;57.60;;;;;;;5.85;100.00;99148.00;269488;1282;22586;-92
2024/03/13 20:45:20;;;;;;;102.40;55.90;;;;;;;5.85;100.00;99147.12;266594;1279;3798518;-93
2024/03/13 20:51:27;;;;;;;100.20;54.80;;;;;;;5.81;100.00;99147.52;270272;1279;22575;-91
2024/03/13 20:57:37;;;;;;;97.10;52.30;;;;;;;5.77;100.00;99144.69;269905;1279;22293;-91
2024/03/13 21:03:41;;;;;;;92.20;49.70;;;;;;;5.74;100.00;99141.15;270235;1279;22609;-91
2024/03/13 21:09:46;;;;;;;96.70;54.30;;;;;;;5.70;100.00;99145.08;269468;1279;22550;-91
2024/03/13 21:15:49;;;;;;;108.60;58.90;;;;;;;5.70;100.00;99148.55;269586;1279;22616;-92
2024/03/13 21:21:52;;;;;;;107.50;58.10;;;;;;;5.71;100.00;99144.61;269504;1279;22556;-92
2024/03/13 21:27:57;;;;;;;97.60;52.30;;;;;;;5.70;100.00;99141.81;269564;1279;23902;-91
2024/03/13 21:34:04;;;;;;;84.10;47.60;;;;;;;5.69;100.00;99131.45;270379;1272;23958;-90
2024/03/13 21:40:15;;;;;;;88.40;48.70;;;;;;;5.66;100.00;99128.55;270170;1273;22639;-91
2024/03/13 21:46:23;;;;;;;92.40;49.80;;;;;;;5.60;100.00;99126.80;270125;1273;23785;-92
2024/03/13 21:52:31;;;;;;;92.20;51.00;;;;;;;5.56;100.00;99122.88;269822;1272;25268;-93
2024/03/13 21:58:40;;;;;;;104.90;55.20;;;;;;;5.53;100.00;99116.35;269643;1273;23660;-91
2024/03/13 22:04:50;;;;;;;98.20;51.10;;;;;;;5.52;100.00;99110.64;269896;1272;22405;-92
2024/03/13 22:11:21;;;;;;;100.20;51.10;;;;;;;5.52;100.00;99111.25;270349;1272;22551;-92
2024/03/13 22:17:55;;;;;;;102.80;53.30;;;;;;;5.49;100.00;99107.50;270045;1272;22707;-93
2024/03/13 22:24:02;;;;;;;101.90;51.70;;;;;;;5.45;100.00;99097.47;270287;1272;23402;-92
2024/03/13 22:30:06;;;;;;;98.30;49.70;;;;;;;5.45;100.00;99100.09;270205;1272;25586;-91
2024/03/13 22:36:14;;;;;;;91.80;47.70;;;;;;;5.33;100.00;99105.98;270338;1272;22519;-91
2024/03/13 22:42:38;;;;;;;100.40;51.60;;;;;;;5.16;100.00;99111.84;270002;1272;25429;-91
2024/03/13 22:48:44;;;;;;;111.50;55.40;;;;;;;4.98;100.00;99114.55;270170;1272;22721;-91
2024/03/13 22:54:48;;;;;;;109.70;55.30;;;;;;;4.82;100.00;99107.48;270308;1273;24229;-91
2024/03/13 23:00:58;;;;;;;92.10;46.50;;;;;;;4.64;100.00;99111.48;270872;1272;22520;-90
2024/03/13 23:07:03;;;;;;;90.10;44.60;;;;;;;4.49;100.00;99125.73;270783;1272;22220;-91
2024/03/13 23:13:06;;;;;;;93.50;46.80;;;;;;;4.35;100.00;99140.30;270228;1272;22547;-91
2024/03/13 23:26:14;;;;;;;87.10;44.90;;;;;;;4.46;100.00;99138.09;264774;1296;545264;-93
2024/03/13 23:32:17;;;;;;;84.00;43.90;;;;;;;4.47;100.00;99146.95;268610;1270;23127;-91
2024/03/13 23:38:21;;;;;;;81.40;42.60;;;;;;;4.49;100.00;99138.13;265963;1277;3713224;-92
2024/03/13 23:44:28;;;;;;;95.70;48.70;;;;;;;4.49;100.00;99121.62;269356;1276;22659;-91
2024/03/13 23:50:33;;;;;;;102.00;51.80;;;;;;;4.46;100.00;99123.30;269684;1273;23753;-90
2024/03/13 23:56:46;;;;;;;103.80;51.90;;;;;;;4.33;100.00;99123.20;270014;1273;22576;-91
